createdAt,value
2019-06-26T00:00:05.058Z,50.10
2019-06-26T00:01:05.172Z,50.10
2019-06-26T00:02:05.416Z,49.80
2019-06-26T00:03:05.739Z,49.60
2019-06-26T00:04:04.963Z,49.60
2019-06-26T00:05:07.642Z,50.00
2019-06-26T00:06:08.364Z,49.80
2019-06-26T00:07:07.863Z,49.60
2019-06-26T00:08:08.340Z,49.50
2019-06-26T00:09:08.027Z,50.20
2019-06-26T00:10:07.603Z,49.80
2019-06-26T00:11:08.081Z,50.20
2019-06-26T00:12:07.723Z,50.20
2019-06-26T00:13:08.241Z,50.10
2019-06-26T00:14:07.777Z,50.20
2019-06-26T00:15:08.304Z,50.20
2019-06-26T00:16:07.926Z,50.10
2019-06-26T00:17:11.071Z,50.10
2019-06-26T00:18:07.971Z,50.00
2019-06-26T00:19:05.218Z,50.00
2019-06-26T00:20:07.855Z,50.50
2019-06-26T00:21:08.364Z,50.70
2019-06-26T00:22:05.316Z,50.70
2019-06-26T00:23:05.452Z,50.90
2019-06-26T00:24:05.748Z,50.60
2019-06-26T00:25:05.136Z,50.60
2019-06-26T00:26:05.369Z,50.70
2019-06-26T00:27:05.490Z,50.60
2019-06-26T00:28:05.620Z,50.50
2019-06-26T00:29:05.856Z,50.50
2019-06-26T00:30:07.728Z,50.40
2019-06-26T00:31:12.940Z,50.50
2019-06-26T00:32:07.553Z,50.60
2019-06-26T00:33:08.459Z,50.80
2019-06-26T00:34:05.618Z,50.80
2019-06-26T00:35:05.834Z,50.80
2019-06-26T00:36:07.510Z,51.00
2019-06-26T00:37:05.561Z,51.00
2019-06-26T00:38:08.227Z,51.00
2019-06-26T00:39:05.366Z,38.20
2019-06-26T00:40:05.698Z,50.90
2019-06-26T00:41:08.575Z,51.40
2019-06-26T00:42:05.612Z,51.40
2019-06-26T00:43:05.808Z,51.40
2019-06-26T00:44:05.090Z,50.90
2019-06-26T00:45:05.231Z,50.90
2019-06-26T00:46:05.383Z,50.90
2019-06-26T00:47:05.618Z,50.90
2019-06-26T00:48:05.813Z,51.30
2019-06-26T00:49:08.437Z,51.60
2019-06-26T00:50:05.547Z,51.70
2019-06-26T00:51:08.171Z,52.30
2019-06-26T00:52:07.724Z,51.90
2019-06-26T00:53:05.725Z,51.90
2019-06-26T00:54:05.164Z,52.10
2019-06-26T00:55:05.324Z,52.10
2019-06-26T00:56:05.443Z,52.00
2019-06-26T00:57:05.617Z,51.90
2019-06-26T00:58:05.767Z,52.00
2019-06-26T00:59:05.922Z,52.30
2019-06-26T01:00:07.785Z,52.30
2019-06-26T01:01:05.850Z,52.30
2019-06-26T01:02:07.536Z,52.40
2019-06-26T01:03:05.532Z,52.40
2019-06-26T01:04:05.182Z,52.30
2019-06-26T01:05:07.860Z,52.40
2019-06-26T01:06:05.839Z,52.40
2019-06-26T01:07:12.663Z,52.10
2019-06-26T01:08:05.645Z,52.10
2019-06-26T01:09:08.319Z,52.70
2019-06-26T01:10:07.749Z,52.80
2019-06-26T01:11:05.721Z,52.80
2019-06-26T01:12:05.978Z,52.60
2019-06-26T01:13:05.125Z,52.50
2019-06-26T01:14:05.363Z,52.40
2019-06-26T01:15:05.641Z,52.70
2019-06-26T01:16:05.827Z,52.70
2019-06-26T01:17:05.083Z,52.80
2019-06-26T01:18:05.411Z,52.90
2019-06-26T01:19:05.673Z,52.80
2019-06-26T01:20:05.946Z,52.80
2019-06-26T01:21:07.656Z,53.00
2019-06-26T01:22:05.836Z,52.90
2019-06-26T01:23:07.522Z,53.00
2019-06-26T01:24:08.078Z,52.90
2019-06-26T01:25:07.690Z,52.80
2019-06-26T01:26:05.873Z,52.80
2019-06-26T01:27:05.036Z,53.00
2019-06-26T01:28:07.973Z,53.30
2019-06-26T01:29:05.081Z,53.30
2019-06-26T01:30:05.303Z,53.20
2019-06-26T01:31:10.540Z,53.60
2019-06-26T01:32:05.599Z,53.50
2019-06-26T01:33:05.770Z,53.60
2019-06-26T01:34:07.832Z,53.40
2019-06-26T01:35:08.437Z,53.30
2019-06-26T01:36:10.633Z,53.60
2019-06-26T01:37:05.857Z,53.60
2019-06-26T01:38:07.506Z,53.50
2019-06-26T01:39:05.698Z,53.50
2019-06-26T01:40:08.394Z,53.80
2019-06-26T01:41:08.101Z,53.80
2019-06-26T01:42:05.171Z,53.80
2019-06-26T01:43:05.265Z,53.90
2019-06-26T01:44:16.787Z,54.00
2019-06-26T01:45:05.003Z,53.80
2019-06-26T01:46:05.273Z,53.90
2019-06-26T01:47:05.391Z,54.10
2019-06-26T01:48:05.859Z,54.10
2019-06-26T01:49:04.952Z,54.10
2019-06-26T01:50:07.691Z,53.90
2019-06-26T01:51:08.341Z,54.20
2019-06-26T01:52:07.906Z,54.20
2019-06-26T01:53:07.609Z,54.60
2019-06-26T01:54:05.710Z,54.50
2019-06-26T01:55:05.866Z,54.50
2019-06-26T01:56:05.186Z,54.40
2019-06-26T01:57:07.967Z,54.80
2019-06-26T01:58:04.970Z,54.70
2019-06-26T01:59:07.663Z,54.90
2019-06-26T02:00:05.822Z,54.90
2019-06-26T02:01:05.010Z,54.70
2019-06-26T02:02:05.293Z,54.80
2019-06-26T02:03:07.987Z,55.00
2019-06-26T02:04:07.520Z,54.90
2019-06-26T02:05:08.029Z,55.00
2019-06-26T02:06:04.990Z,55.00
2019-06-26T02:07:07.615Z,54.70
2019-06-26T02:08:08.141Z,55.00
2019-06-26T02:09:05.263Z,55.00
2019-06-26T02:10:05.356Z,55.10
2019-06-26T02:11:08.138Z,55.10
2019-06-26T02:12:05.174Z,55.10
2019-06-26T02:13:07.822Z,55.30
2019-06-26T02:14:08.479Z,55.40
2019-06-26T02:15:05.452Z,55.30
2019-06-26T02:16:05.752Z,55.40
2019-06-26T02:17:07.507Z,55.60
2019-06-26T02:18:08.026Z,55.40
2019-06-26T02:19:04.976Z,55.40
2019-06-26T02:20:05.164Z,55.50
2019-06-26T02:21:07.975Z,55.50
2019-06-26T02:22:10.133Z,55.80
2019-06-26T02:23:07.726Z,55.70
2019-06-26T02:24:08.207Z,55.70
2019-06-26T02:25:05.232Z,55.70
2019-06-26T02:26:13.075Z,55.40
2019-06-26T02:27:07.644Z,55.30
2019-06-26T02:28:05.670Z,55.30
2019-06-26T02:29:05.773Z,55.20
2019-06-26T02:30:05.935Z,55.30
2019-06-26T02:31:07.699Z,55.80
2019-06-26T02:32:05.811Z,55.80
2019-06-26T02:33:04.941Z,55.90
2019-06-26T02:34:10.218Z,56.00
2019-06-26T02:35:10.700Z,56.00
2019-06-26T02:36:05.004Z,56.00
2019-06-26T02:37:07.628Z,56.10
2019-06-26T02:38:05.593Z,56.00
2019-06-26T02:39:05.682Z,56.00
2019-06-26T02:40:05.808Z,56.00
2019-06-26T02:41:07.590Z,56.30
2019-06-26T02:42:05.662Z,56.20
2019-06-26T02:43:07.539Z,56.30
2019-06-26T02:44:08.313Z,56.20
2019-06-26T02:45:05.373Z,56.10
2019-06-26T02:46:05.510Z,56.00
2019-06-26T02:47:20.580Z,56.00
2019-06-26T02:48:05.057Z,56.20
2019-06-26T02:49:05.208Z,56.30
2019-06-26T02:50:05.326Z,56.40
2019-06-26T02:51:08.000Z,56.30
2019-06-26T02:52:07.632Z,56.10
2019-06-26T02:53:10.699Z,56.20
2019-06-26T02:54:05.837Z,56.20
2019-06-26T02:55:07.587Z,56.20
2019-06-26T02:56:13.313Z,56.30
2019-06-26T02:57:05.393Z,56.20
2019-06-26T02:58:05.582Z,56.30
2019-06-26T02:59:08.431Z,56.40
2019-06-26T03:00:05.597Z,56.50
2019-06-26T03:01:08.331Z,56.40
2019-06-26T03:02:08.003Z,56.40
2019-06-26T03:03:07.561Z,56.70
2019-06-26T03:04:08.223Z,56.70
2019-06-26T03:05:05.187Z,56.70
2019-06-26T03:06:05.315Z,56.80
2019-06-26T03:07:05.436Z,56.70
2019-06-26T03:08:07.879Z,56.60
2019-06-26T03:09:05.976Z,56.60
2019-06-26T03:10:07.625Z,56.70
2019-06-26T03:11:08.333Z,56.90
2019-06-26T03:12:05.284Z,56.80
2019-06-26T03:13:05.441Z,56.80
2019-06-26T03:14:08.146Z,56.60
2019-06-26T03:15:09.959Z,56.60
2019-06-26T03:16:05.268Z,56.70
2019-06-26T03:17:08.101Z,56.80
2019-06-26T03:18:07.654Z,56.70
2019-06-26T03:19:05.689Z,56.70
2019-06-26T03:20:05.877Z,56.80
2019-06-26T03:21:07.530Z,56.60
2019-06-26T03:22:08.245Z,56.80
2019-06-26T03:23:05.479Z,56.80
2019-06-26T03:24:05.775Z,56.80
2019-06-26T03:25:05.978Z,56.80
2019-06-26T03:26:05.131Z,56.70
2019-06-26T03:27:09.633Z,56.90
2019-06-26T03:28:08.415Z,56.90
2019-06-26T03:29:05.531Z,56.90
2019-06-26T03:30:08.423Z,57.30
2019-06-26T03:31:07.959Z,57.20
2019-06-26T03:32:10.101Z,57.30
2019-06-26T03:33:07.783Z,57.20
2019-06-26T03:34:05.849Z,57.20
2019-06-26T03:35:07.533Z,57.30
2019-06-26T03:36:08.113Z,57.20
2019-06-26T03:37:07.744Z,57.30
2019-06-26T03:38:05.897Z,57.30
2019-06-26T03:39:05.041Z,57.50
2019-06-26T03:40:05.161Z,57.20
2019-06-26T03:41:07.888Z,57.10
2019-06-26T03:42:08.492Z,57.20
2019-06-26T03:43:08.313Z,57.00
2019-06-26T03:44:05.302Z,57.00
2019-06-26T03:45:25.984Z,57.00
2019-06-26T03:46:05.657Z,57.00
2019-06-26T03:47:05.766Z,57.00
2019-06-26T03:48:05.450Z,56.80
2019-06-26T03:49:05.785Z,56.60
2019-06-26T03:50:05.173Z,56.50
2019-06-26T03:51:07.865Z,56.00
2019-06-26T03:52:11.056Z,55.90
2019-06-26T03:53:07.756Z,55.70
2019-06-26T03:54:05.895Z,55.80
2019-06-26T03:55:05.251Z,55.60
2019-06-26T03:56:05.514Z,55.50
2019-06-26T03:57:08.320Z,55.20
2019-06-26T03:58:07.827Z,54.90
2019-06-26T03:59:05.801Z,55.00
2019-06-26T04:00:05.935Z,54.90
2019-06-26T04:01:05.121Z,54.60
2019-06-26T04:02:05.297Z,54.60
2019-06-26T04:03:05.504Z,54.40
2019-06-26T04:04:08.199Z,54.00
2019-06-26T04:05:07.873Z,53.80
2019-06-26T04:06:05.068Z,53.80
2019-06-26T04:07:05.255Z,53.60
2019-06-26T04:08:05.417Z,53.30
2019-06-26T04:09:05.583Z,53.20
2019-06-26T04:10:08.397Z,52.80
2019-06-26T04:11:05.618Z,52.60
2019-06-26T04:12:08.520Z,52.50
2019-06-26T04:13:08.258Z,52.20
2019-06-26T04:14:08.027Z,52.10
2019-06-26T04:15:05.116Z,52.10
2019-06-26T04:16:07.812Z,51.80
2019-06-26T04:17:05.863Z,51.80
2019-06-26T04:18:05.032Z,51.50
2019-06-26T04:19:05.329Z,51.30
2019-06-26T04:20:08.037Z,50.60
2019-06-26T04:21:07.781Z,50.50
2019-06-26T04:22:08.429Z,50.20
2019-06-26T04:23:05.626Z,50.20
2019-06-26T04:24:08.333Z,49.60
2019-06-26T04:25:08.253Z,49.50
2019-06-26T04:26:07.858Z,49.20
2019-06-26T04:27:11.031Z,49.00
2019-06-26T04:28:06.797Z,49.00
2019-06-26T04:29:08.464Z,48.30
2019-06-26T04:30:05.478Z,48.40
2019-06-26T04:31:08.289Z,47.90
2019-06-26T04:32:07.907Z,47.80
2019-06-26T04:33:05.014Z,47.80
2019-06-26T04:34:05.274Z,47.70
2019-06-26T04:35:05.521Z,47.50
2019-06-26T04:36:05.673Z,47.40
2019-06-26T04:37:05.795Z,47.10
2019-06-26T04:38:07.568Z,47.00
2019-06-26T04:39:08.274Z,46.70
2019-06-26T04:40:05.435Z,46.60
2019-06-26T04:41:05.617Z,46.50
2019-06-26T04:42:05.786Z,46.30
2019-06-26T04:43:05.889Z,46.50
2019-06-26T04:44:07.588Z,46.00
2019-06-26T04:45:08.253Z,45.80
2019-06-26T04:46:05.421Z,45.70
2019-06-26T04:47:05.638Z,45.40
2019-06-26T04:48:10.774Z,45.00
2019-06-26T04:49:08.317Z,45.20
2019-06-26T04:50:08.063Z,44.80
2019-06-26T04:51:05.110Z,44.80
2019-06-26T04:52:05.325Z,44.40
2019-06-26T04:53:08.226Z,44.70
2019-06-26T04:54:05.281Z,44.70
2019-06-26T04:55:05.392Z,44.50
2019-06-26T04:56:05.603Z,44.00
2019-06-26T04:57:08.451Z,43.40
2019-06-26T04:58:05.521Z,43.40
2019-06-26T04:59:08.347Z,43.80
2019-06-26T05:00:08.072Z,43.70
2019-06-26T05:01:05.142Z,43.70
2019-06-26T05:02:07.782Z,43.00
2019-06-26T05:03:05.877Z,42.90
2019-06-26T05:04:07.540Z,42.30
2019-06-26T05:05:05.582Z,42.30
2019-06-26T05:06:08.281Z,42.40
2019-06-26T05:07:07.830Z,42.40
2019-06-26T05:08:05.935Z,42.40
2019-06-26T05:09:12.628Z,41.60
2019-06-26T05:10:08.170Z,41.20
2019-06-26T05:11:05.229Z,41.20
2019-06-26T05:12:05.361Z,40.70
2019-06-26T05:13:05.656Z,40.30
2019-06-26T05:14:08.376Z,39.70
2019-06-26T05:15:05.401Z,39.70
2019-06-26T05:16:20.157Z,39.40
2019-06-26T05:17:05.659Z,39.30
2019-06-26T05:18:05.812Z,39.10
2019-06-26T05:19:04.974Z,39.60
2019-06-26T05:20:05.100Z,39.30
2019-06-26T05:21:05.283Z,38.70
2019-06-26T05:22:05.644Z,38.50
2019-06-26T05:23:08.506Z,37.80
2019-06-26T05:24:05.558Z,37.80
2019-06-26T05:25:08.288Z,37.10
2019-06-26T05:26:05.314Z,37.00
2019-06-26T05:27:08.544Z,37.00
2019-06-26T05:28:08.825Z,37.00
2019-06-26T05:29:07.611Z,36.70
2019-06-26T05:30:05.745Z,36.70
2019-06-26T05:31:05.910Z,36.60
2019-06-26T05:32:05.050Z,36.70
2019-06-26T05:33:05.224Z,36.60
2019-06-26T05:34:11.394Z,36.00
2019-06-26T05:35:05.377Z,36.10
2019-06-26T05:36:05.738Z,35.70
2019-06-26T05:37:04.921Z,36.00
2019-06-26T05:38:05.071Z,36.10
2019-06-26T05:39:07.722Z,36.20
2019-06-26T05:40:08.312Z,36.20
2019-06-26T05:41:10.565Z,36.00
2019-06-26T05:42:07.183Z,36.00
2019-06-26T05:43:07.950Z,35.80
2019-06-26T05:44:07.492Z,35.30
2019-06-26T05:45:05.668Z,35.30
2019-06-26T05:46:06.021Z,35.20
2019-06-26T05:47:07.584Z,34.80
2019-06-26T05:48:05.839Z,34.50
2019-06-26T05:49:04.981Z,34.10
2019-06-26T05:50:07.662Z,34.30
2019-06-26T05:51:05.779Z,34.30
2019-06-26T05:52:04.929Z,34.10
2019-06-26T05:53:07.583Z,33.80
2019-06-26T05:54:08.186Z,34.00
2019-06-26T05:55:07.830Z,33.90
2019-06-26T05:56:05.886Z,34.00
2019-06-26T05:57:10.164Z,33.90
2019-06-26T05:58:05.219Z,33.90
2019-06-26T05:59:05.573Z,33.80
2019-06-26T06:00:05.838Z,33.60
2019-06-26T06:01:10.327Z,33.60
2019-06-26T06:02:10.493Z,33.20
2019-06-26T06:03:05.497Z,33.20
2019-06-26T06:04:05.708Z,33.10
2019-06-26T06:05:05.967Z,32.90
2019-06-26T06:06:07.599Z,32.70
2019-06-26T06:07:10.660Z,32.80
2019-06-26T06:08:08.382Z,32.90
2019-06-26T06:09:05.573Z,32.90
2019-06-26T06:10:08.296Z,32.70
2019-06-26T06:11:07.846Z,32.70
2019-06-26T06:12:06.052Z,32.60
2019-06-26T06:13:05.283Z,32.50
2019-06-26T06:14:12.987Z,31.80
2019-06-26T06:15:07.641Z,32.00
2019-06-26T06:16:06.891Z,32.00
2019-06-26T06:17:05.115Z,32.00
2019-06-26T06:18:05.382Z,32.30
2019-06-26T06:19:05.747Z,32.50
2019-06-26T06:20:05.089Z,32.40
2019-06-26T06:21:05.894Z,32.50
2019-06-26T06:22:05.128Z,32.40
2019-06-26T06:23:05.303Z,32.40
2019-06-26T06:24:08.171Z,32.60
2019-06-26T06:25:07.888Z,33.00
2019-06-26T06:26:08.526Z,33.30
2019-06-26T06:27:05.641Z,33.30
2019-06-26T06:28:05.820Z,33.00
2019-06-26T06:29:04.987Z,33.00
2019-06-26T06:30:05.168Z,33.20
2019-06-26T06:31:08.105Z,33.20
2019-06-26T06:32:07.712Z,33.00
2019-06-26T06:33:05.979Z,33.00
2019-06-26T06:34:05.269Z,33.20
2019-06-26T06:35:08.079Z,33.40
2019-06-26T06:36:10.434Z,33.40
2019-06-26T06:37:08.248Z,33.10
2019-06-26T06:38:05.646Z,33.10
2019-06-26T06:39:08.400Z,33.20
2019-06-26T06:40:10.716Z,33.20
2019-06-26T06:41:05.778Z,33.10
2019-06-26T06:42:05.213Z,33.40
2019-06-26T06:43:06.230Z,33.40
2019-06-26T06:44:08.169Z,33.20
2019-06-26T06:45:14.140Z,33.20
2019-06-26T06:52:05.532Z,32.90
2019-06-26T06:53:08.245Z,33.00
2019-06-26T06:54:05.419Z,33.00
2019-06-26T06:55:05.540Z,32.90
2019-06-26T06:56:05.752Z,32.60
2019-06-26T06:57:05.939Z,32.50
2019-06-26T06:58:05.311Z,32.70
2019-06-26T06:59:05.639Z,32.80
2019-06-26T07:00:05.809Z,33.70
2019-06-26T07:01:05.878Z,33.40
2019-06-26T07:02:07.574Z,33.30
2019-06-26T07:03:08.166Z,33.20
2019-06-26T07:04:07.889Z,33.40
2019-06-26T07:05:05.899Z,33.40
2019-06-26T07:06:05.049Z,33.30
2019-06-26T07:07:07.909Z,33.00
2019-06-26T07:08:05.006Z,33.00
2019-06-26T07:09:07.829Z,32.90
2019-06-26T07:10:05.894Z,32.90
2019-06-26T07:11:07.675Z,33.00
2019-06-26T07:12:08.414Z,32.60
2019-06-26T07:13:08.043Z,32.50
2019-06-26T07:14:07.574Z,32.40
2019-06-26T07:15:05.786Z,32.50
2019-06-26T07:16:10.258Z,32.60
2019-06-26T07:17:21.366Z,32.60
2019-06-26T07:18:08.097Z,32.20
2019-06-26T07:19:05.143Z,32.20
2019-06-26T07:20:07.912Z,32.30
2019-06-26T07:21:05.129Z,32.20
2019-06-26T07:22:07.673Z,32.20
2019-06-26T07:23:08.435Z,32.20
2019-06-26T07:24:05.490Z,32.20
2019-06-26T07:25:05.635Z,31.80
2019-06-26T07:26:05.783Z,32.00
2019-06-26T07:27:05.987Z,32.40
2019-06-26T07:28:07.806Z,32.20
2019-06-26T07:29:08.556Z,31.80
2019-06-26T07:30:08.224Z,31.70
2019-06-26T07:31:05.292Z,31.70
2019-06-26T07:32:05.525Z,32.00
2019-06-26T07:33:05.661Z,32.10
2019-06-26T07:34:08.417Z,31.90
2019-06-26T07:35:05.448Z,31.90
2019-06-26T07:36:08.171Z,32.30
2019-06-26T07:37:10.341Z,31.80
2019-06-26T07:38:06.001Z,31.80
2019-06-26T07:39:10.418Z,31.70
2019-06-26T07:40:05.725Z,31.70
2019-06-26T07:41:11.018Z,31.70
2019-06-26T07:42:05.256Z,31.70
2019-06-26T07:43:05.794Z,31.40
2019-06-26T07:44:04.995Z,31.40
2019-06-26T07:45:05.130Z,31.60
2019-06-26T07:46:05.453Z,31.20
2019-06-26T07:47:23.283Z,31.20
2019-06-26T07:48:10.187Z,31.50
2019-06-26T07:49:05.328Z,31.50
2019-06-26T07:50:08.151Z,31.70
2019-06-26T07:51:07.833Z,32.00
2019-06-26T07:52:08.498Z,32.20
2019-06-26T07:53:05.553Z,32.20
2019-06-26T07:54:07.557Z,31.30
2019-06-26T07:55:05.688Z,31.30
2019-06-26T07:56:05.968Z,31.30
2019-06-26T07:57:04.981Z,30.90
2019-06-26T07:58:10.287Z,30.60
2019-06-26T07:59:07.889Z,30.40
2019-06-26T08:00:05.939Z,30.40
2019-06-26T08:01:05.109Z,30.40
2019-06-26T08:02:05.455Z,30.20
2019-06-26T08:03:08.083Z,30.10
2019-06-26T08:04:10.117Z,30.00
2019-06-26T08:05:05.124Z,30.50
2019-06-26T08:06:05.864Z,30.70
2019-06-26T08:07:04.992Z,30.80
2019-06-26T08:08:08.076Z,31.10
2019-06-26T08:09:07.713Z,31.10
2019-06-26T08:10:05.766Z,31.10
2019-06-26T08:11:07.030Z,30.70
2019-06-26T08:12:05.177Z,30.60
2019-06-26T08:13:05.350Z,30.30
2019-06-26T08:14:08.034Z,30.00
2019-06-26T08:15:10.200Z,30.00
2019-06-26T08:16:05.944Z,30.00
2019-06-26T08:17:05.149Z,30.10
2019-06-26T08:18:05.509Z,30.10
2019-06-26T08:19:08.367Z,30.20
2019-06-26T08:20:08.040Z,29.70
2019-06-26T08:21:13.267Z,29.70
2019-06-26T08:22:05.493Z,29.80
2019-06-26T08:23:05.671Z,29.70
2019-06-26T08:24:08.445Z,29.30
2019-06-26T08:25:07.993Z,29.40
2019-06-26T08:26:05.315Z,29.40
2019-06-26T08:27:05.590Z,29.30
2019-06-26T08:28:08.384Z,29.40
2019-06-26T08:29:07.967Z,29.10
2019-06-26T08:30:05.083Z,29.00
2019-06-26T08:31:07.914Z,28.90
2019-06-26T08:32:05.041Z,28.90
2019-06-26T08:33:07.917Z,28.60
2019-06-26T08:34:05.064Z,28.70
2019-06-26T08:35:08.005Z,29.10
2019-06-26T08:36:07.649Z,29.20
2019-06-26T08:37:06.189Z,29.20
2019-06-26T08:38:15.426Z,29.60
2019-06-26T08:39:07.578Z,28.90
2019-06-26T08:40:05.636Z,29.00
2019-06-26T08:41:05.899Z,28.80
2019-06-26T08:42:05.072Z,28.70
2019-06-26T08:43:05.215Z,28.80
2019-06-26T08:44:10.404Z,28.70
2019-06-26T08:45:10.423Z,27.80
2019-06-26T08:46:08.081Z,28.10
2019-06-26T08:47:05.260Z,28.10
2019-06-26T08:49:05.893Z,29.30
2019-06-26T08:50:05.433Z,29.70
2019-06-26T08:51:08.143Z,29.20
2019-06-26T08:52:05.213Z,29.10
2019-06-26T08:53:05.408Z,28.60
2019-06-26T08:54:05.512Z,29.00
2019-06-26T08:55:08.054Z,29.10
2019-06-26T08:56:05.526Z,29.10
2019-06-26T08:57:05.742Z,29.10
2019-06-26T08:58:08.621Z,28.90
2019-06-26T08:59:05.604Z,28.90
2019-06-26T09:00:05.079Z,28.90
2019-06-26T09:01:05.226Z,28.40
2019-06-26T09:02:07.866Z,28.10
2019-06-26T09:03:08.441Z,28.00
2019-06-26T09:04:07.907Z,28.10
2019-06-26T09:05:05.957Z,28.10
2019-06-26T09:06:05.299Z,27.60
2019-06-26T09:07:08.010Z,27.30
2019-06-26T09:08:05.252Z,27.30
2019-06-26T09:09:07.921Z,27.30
2019-06-26T09:10:08.477Z,27.60
2019-06-26T09:11:08.227Z,27.60
2019-06-26T09:12:05.225Z,27.60
2019-06-26T09:13:07.933Z,26.60
2019-06-26T09:14:05.984Z,26.50
2019-06-26T09:15:05.341Z,27.00
2019-06-26T09:16:05.495Z,27.50
2019-06-26T09:17:05.782Z,27.80
2019-06-26T09:18:07.644Z,27.60
2019-06-26T09:19:08.232Z,27.60
2019-06-26T09:20:05.178Z,27.50
2019-06-26T09:21:05.366Z,27.10
2019-06-26T09:22:08.049Z,27.30
2019-06-26T09:23:05.287Z,27.30
2019-06-26T09:24:08.098Z,27.10
2019-06-26T09:25:22.513Z,27.00
2019-06-26T09:26:13.326Z,26.80
2019-06-26T09:27:07.921Z,26.90
2019-06-26T09:28:04.959Z,26.90
2019-06-26T09:29:05.313Z,26.90
2019-06-26T09:30:08.410Z,25.30
2019-06-26T09:31:07.645Z,25.30
2019-06-26T09:32:08.228Z,24.60
2019-06-26T09:33:07.777Z,25.20
2019-06-26T09:34:08.331Z,25.20
2019-06-26T09:35:07.963Z,25.30
2019-06-26T09:36:07.409Z,25.30
2019-06-26T09:37:05.599Z,25.50
2019-06-26T09:38:08.343Z,25.10
2019-06-26T09:39:05.454Z,25.10
2019-06-26T09:40:08.165Z,25.20
2019-06-26T09:41:05.173Z,25.20
2019-06-26T09:42:05.267Z,25.40
2019-06-26T09:43:08.036Z,25.40
2019-06-26T09:44:05.053Z,25.40
2019-06-26T09:45:07.737Z,25.20
2019-06-26T09:46:08.223Z,25.50
2019-06-26T09:47:07.747Z,25.70
2019-06-26T09:48:08.394Z,25.80
2019-06-26T09:49:05.505Z,25.80
2019-06-26T09:50:05.339Z,25.80
2019-06-26T09:51:07.986Z,25.60
2019-06-26T09:52:05.159Z,25.10
2019-06-26T09:53:08.487Z,24.10
2019-06-26T09:54:05.549Z,24.20
2019-06-26T09:55:05.799Z,24.80
2019-06-26T09:56:05.107Z,24.90
2019-06-26T09:57:07.773Z,24.10
2019-06-26T09:58:05.840Z,24.10
2019-06-26T09:59:07.536Z,24.90
2019-06-26T10:00:10.708Z,24.50
2019-06-26T10:01:05.844Z,24.50
2019-06-26T10:02:07.713Z,24.80
2019-06-26T10:03:08.431Z,25.00
2019-06-26T10:04:07.978Z,25.40
2019-06-26T10:05:05.114Z,24.90
2019-06-26T10:06:05.104Z,24.10
2019-06-26T10:07:07.893Z,24.40
2019-06-26T10:08:05.893Z,24.00
2019-06-26T10:09:05.091Z,24.30
2019-06-26T10:10:05.404Z,24.80
2019-06-26T10:11:08.363Z,24.50
2019-06-26T10:12:10.597Z,24.90
2019-06-26T10:13:05.722Z,24.90
2019-06-26T10:14:08.505Z,24.60
2019-06-26T10:15:05.766Z,24.60
2019-06-26T10:16:05.132Z,24.50
2019-06-26T10:17:05.372Z,24.20
2019-06-26T10:18:05.568Z,24.40
2019-06-26T10:19:11.010Z,24.40
2019-06-26T10:20:07.877Z,24.40
2019-06-26T10:21:07.911Z,24.20
2019-06-26T10:22:07.591Z,23.70
2019-06-26T10:23:05.695Z,23.70
2019-06-26T10:24:08.381Z,23.80
2019-06-26T10:25:05.398Z,23.70
2019-06-26T10:26:05.697Z,22.70
2019-06-26T10:27:10.998Z,22.50
2019-06-26T10:28:07.500Z,23.20
2019-06-26T10:29:08.151Z,23.50
2019-06-26T10:30:05.188Z,23.60
2019-06-26T10:31:05.901Z,23.60
2019-06-26T10:38:05.718Z,23.50
2019-06-26T10:39:05.931Z,23.60
2019-06-26T10:40:07.704Z,22.80
2019-06-26T10:41:05.885Z,22.80
2019-06-26T10:42:07.568Z,24.30
2019-06-26T10:43:05.655Z,24.20
2019-06-26T10:44:05.925Z,23.90
2019-06-26T10:45:07.705Z,24.00
2019-06-26T10:46:05.800Z,24.00
2019-06-26T10:47:05.967Z,23.70
2019-06-26T10:48:05.578Z,23.70
2019-06-26T10:49:05.782Z,23.60
2019-06-26T10:50:06.102Z,23.70
2019-06-26T10:51:08.020Z,23.60
2019-06-26T10:52:10.216Z,23.40
2019-06-26T10:53:05.411Z,23.30
2019-06-26T10:54:05.602Z,23.00
2019-06-26T10:55:05.945Z,23.20
2019-06-26T10:56:05.225Z,22.50
2019-06-26T10:57:05.400Z,23.00
2019-06-26T10:58:05.090Z,23.40
2019-06-26T10:59:07.920Z,22.70
2019-06-26T11:00:06.000Z,22.70
2019-06-26T11:01:05.249Z,23.00
2019-06-26T11:02:08.025Z,22.40
2019-06-26T11:03:05.138Z,22.50
2019-06-26T11:04:05.476Z,22.70
2019-06-26T11:05:05.794Z,23.00
2019-06-26T11:06:05.204Z,23.20
2019-06-26T11:07:05.613Z,23.20
2019-06-26T11:08:10.908Z,23.30
2019-06-26T11:09:06.117Z,23.30
2019-06-26T11:10:10.561Z,23.20
2019-06-26T11:11:08.170Z,22.90
2019-06-26T11:12:07.820Z,23.20
2019-06-26T11:13:05.880Z,23.20
2019-06-26T11:14:05.127Z,23.60
2019-06-26T11:15:05.435Z,22.10
2019-06-26T11:16:05.693Z,22.20
2019-06-26T11:17:05.941Z,22.50
2019-06-26T11:18:05.149Z,22.50
2019-06-26T11:19:05.834Z,22.00
2019-06-26T11:20:05.251Z,22.00
2019-06-26T11:21:05.512Z,21.80
2019-06-26T11:22:17.313Z,21.90
2019-06-26T11:23:05.683Z,21.90
2019-06-26T11:24:05.993Z,22.40
2019-06-26T11:25:10.324Z,22.80
2019-06-26T11:26:05.517Z,22.80
2019-06-26T11:27:05.932Z,22.70
2019-06-26T11:28:05.186Z,22.70
2019-06-26T11:29:05.371Z,22.30
2019-06-26T11:30:05.630Z,22.20
2019-06-26T11:31:13.422Z,22.40
2019-06-26T11:32:08.408Z,22.40
2019-06-26T11:33:08.295Z,22.10
2019-06-26T11:34:05.419Z,22.10
2019-06-26T11:35:05.524Z,21.90
2019-06-26T11:36:05.329Z,21.50
2019-06-26T11:37:05.680Z,21.30
2019-06-26T11:38:10.911Z,22.30
2019-06-26T11:39:05.917Z,22.30
2019-06-26T11:40:07.656Z,22.40
2019-06-26T11:41:05.663Z,22.40
2019-06-26T11:42:05.767Z,21.80
2019-06-26T11:43:07.603Z,22.10
2019-06-26T11:44:10.754Z,22.10
2019-06-26T11:45:08.395Z,21.80
2019-06-26T11:46:05.457Z,21.70
2019-06-26T11:47:10.775Z,21.70
2019-06-26T11:48:05.905Z,21.60
2019-06-26T11:49:05.072Z,21.50
2019-06-26T11:50:05.319Z,21.70
2019-06-26T11:51:05.411Z,21.10
2019-06-26T11:52:05.759Z,21.80
2019-06-26T11:53:06.032Z,20.90
2019-06-26T11:54:05.270Z,20.40
2019-06-26T11:55:05.438Z,21.10
2019-06-26T11:56:05.554Z,21.70
2019-06-26T11:57:05.708Z,21.90
2019-06-26T11:58:08.444Z,20.70
2019-06-26T11:59:08.147Z,20.50
2019-06-26T12:00:05.662Z,20.40
2019-06-26T12:01:08.409Z,21.70
2019-06-26T12:02:05.556Z,21.70
2019-06-26T12:03:05.762Z,22.20
2019-06-26T12:04:06.166Z,22.00
2019-06-26T12:05:05.441Z,22.00
2019-06-26T12:06:19.290Z,21.80
2019-06-26T12:07:05.951Z,21.80
2019-06-26T12:08:07.988Z,21.80
2019-06-26T12:09:07.756Z,21.50
2019-06-26T12:10:06.185Z,21.50
2019-06-26T12:11:05.735Z,21.40
2019-06-26T12:12:06.175Z,21.40
2019-06-26T12:13:08.007Z,21.40
2019-06-26T12:14:05.190Z,21.40
2019-06-26T12:15:10.578Z,21.50
2019-06-26T12:16:05.947Z,21.50
2019-06-26T12:17:05.710Z,21.90
2019-06-26T12:18:05.369Z,22.20
2019-06-26T12:19:06.252Z,22.20
2019-06-26T12:20:19.891Z,21.70
2019-06-26T12:21:05.639Z,21.70
2019-06-26T12:22:06.371Z,21.90
2019-06-26T12:23:06.170Z,21.40
2019-06-26T12:24:10.834Z,22.20
2019-06-26T12:25:14.142Z,22.20
2019-06-26T12:26:05.836Z,22.20
2019-06-26T12:27:05.680Z,21.90
2019-06-26T12:28:06.016Z,22.00
2019-06-26T12:29:05.404Z,21.00
2019-06-26T12:30:05.661Z,20.70
2019-06-26T12:31:08.898Z,21.20
2019-06-26T12:32:05.403Z,21.30
2019-06-26T12:33:13.863Z,21.50
2019-06-26T12:34:05.127Z,21.60
2019-06-26T12:35:05.344Z,21.60
2019-06-26T12:36:05.709Z,21.80
2019-06-26T12:37:11.374Z,21.40
2019-06-26T12:38:10.810Z,21.20
2019-06-26T12:39:06.033Z,21.20
2019-06-26T12:40:08.118Z,20.70
2019-06-26T12:41:05.585Z,20.70
2019-06-26T12:42:08.581Z,21.10
2019-06-26T12:43:06.110Z,21.10
2019-06-26T12:44:05.613Z,21.50
2019-06-26T12:45:06.029Z,21.60
2019-06-26T12:46:08.065Z,21.10
2019-06-26T12:47:05.206Z,21.10
2019-06-26T12:48:05.671Z,21.00
2019-06-26T12:49:13.754Z,20.50
2019-06-26T12:50:06.155Z,20.50
2019-06-26T12:51:05.302Z,20.50
2019-06-26T12:52:07.935Z,21.10
2019-06-26T12:53:06.153Z,21.20
2019-06-26T12:54:05.326Z,20.80
2019-06-26T12:55:08.172Z,20.80
2019-06-26T12:56:07.804Z,20.70
2019-06-26T12:57:06.041Z,20.70
2019-06-26T12:58:18.006Z,21.00
2019-06-26T12:59:05.511Z,21.10
2019-06-26T13:00:08.548Z,21.50
2019-06-26T13:01:05.625Z,21.50
2019-06-26T13:02:05.851Z,21.40
2019-06-26T13:03:05.181Z,21.40
2019-06-26T13:04:08.004Z,20.80
2019-06-26T13:05:10.118Z,21.30